sensor_id;sensor_type;location;lat;lon;timestamp;P1;durP1;ratioP1;P2;durP2;ratioP2
15536;SDS011;7870;52.448;13.270;2022-09-09T00:03:37;14.55;;;13.18;;
15536;SDS011;7870;52.448;13.270;2022-09-09T00:08:58;16.55;;;14.95;;
15536;SDS011;7870;52.448;13.270;2022-09-09T00:11:28;15.52;;;13.98;;
15536;SDS011;7870;52.448;13.270;2022-09-09T00:13:58;17.63;;;15.82;;
15536;SDS011;7870;52.448;13.270;2022-09-09T00:16:28;18.60;;;16.65;;
15536;SDS011;7870;52.448;13.270;2022-09-09T00:21:37;14.93;;;13.52;;
15536;SDS011;7870;52.448;13.270;2022-09-09T00:24:23;13.57;;;12.25;;
15536;SDS011;7870;52.448;13.270;2022-09-09T00:26:53;12.02;;;11.00;;
15536;SDS011;7870;52.448;13.270;2022-09-09T00:29:38;14.23;;;12.77;;
15536;SDS011;7870;52.448;13.270;2022-09-09T00:32:17;14.65;;;12.70;;
15536;SDS011;7870;52.448;13.270;2022-09-09T00:34:52;18.70;;;14.93;;
15536;SDS011;7870;52.448;13.270;2022-09-09T00:37:20;15.30;;;13.90;;
15536;SDS011;7870;52.448;13.270;2022-09-09T00:39:47;15.43;;;13.82;;
15536;SDS011;7870;52.448;13.270;2022-09-09T00:45:05;12.95;;;11.75;;
15536;SDS011;7870;52.448;13.270;2022-09-09T00:50:02;11.25;;;10.25;;
15536;SDS011;7870;52.448;13.270;2022-09-09T00:55:27;15.80;;;14.20;;
15536;SDS011;7870;52.448;13.270;2022-09-09T00:57:58;12.70;;;11.37;;
15536;SDS011;7870;52.448;13.270;2022-09-09T01:00:29;10.90;;;9.90;;
15536;SDS011;7870;52.448;13.270;2022-09-09T01:09:19;11.10;;;10.07;;
15536;SDS011;7870;52.448;13.270;2022-09-09T01:17:08;16.77;;;15.05;;
15536;SDS011;7870;52.448;13.270;2022-09-09T01:19:41;12.55;;;11.43;;
15536;SDS011;7870;52.448;13.270;2022-09-09T01:25:11;11.02;;;10.13;;
15536;SDS011;7870;52.448;13.270;2022-09-09T01:27:52;11.52;;;10.43;;
15536;SDS011;7870;52.448;13.270;2022-09-09T01:30:21;11.90;;;10.73;;
15536;SDS011;7870;52.448;13.270;2022-09-09T01:32:50;12.18;;;11.00;;
15536;SDS011;7870;52.448;13.270;2022-09-09T01:35:32;17.70;;;12.73;;
15536;SDS011;7870;52.448;13.270;2022-09-09T01:38:02;13.38;;;11.05;;
15536;SDS011;7870;52.448;13.270;2022-09-09T01:40:29;11.02;;;10.05;;
15536;SDS011;7870;52.448;13.270;2022-09-09T01:42:56;16.38;;;14.27;;
15536;SDS011;7870;52.448;13.270;2022-09-09T01:45:23;14.13;;;12.57;;
15536;SDS011;7870;52.448;13.270;2022-09-09T01:47:50;12.60;;;11.50;;
15536;SDS011;7870;52.448;13.270;2022-09-09T01:50:25;13.48;;;11.85;;
15536;SDS011;7870;52.448;13.270;2022-09-09T01:52:53;12.85;;;11.65;;
15536;SDS011;7870;52.448;13.270;2022-09-09T01:55:39;13.82;;;12.43;;
15536;SDS011;7870;52.448;13.270;2022-09-09T02:00:36;11.80;;;10.75;;
15536;SDS011;7870;52.448;13.270;2022-09-09T02:03:09;12.38;;;11.05;;
15536;SDS011;7870;52.448;13.270;2022-09-09T02:06:14;12.73;;;11.52;;
15536;SDS011;7870;52.448;13.270;2022-09-09T02:08:46;11.40;;;9.35;;
15536;SDS011;7870;52.448;13.270;2022-09-09T02:11:17;11.75;;;10.38;;
15536;SDS011;7870;52.448;13.270;2022-09-09T02:13:59;11.10;;;10.00;;
15536;SDS011;7870;52.448;13.270;2022-09-09T02:16:37;15.27;;;13.68;;
15536;SDS011;7870;52.448;13.270;2022-09-09T02:19:16;13.88;;;12.52;;
15536;SDS011;7870;52.448;13.270;2022-09-09T02:21:56;15.95;;;14.35;;
15536;SDS011;7870;52.448;13.270;2022-09-09T02:24:24;11.88;;;10.68;;
15536;SDS011;7870;52.448;13.270;2022-09-09T02:27:01;13.07;;;11.60;;
15536;SDS011;7870;52.448;13.270;2022-09-09T02:29:34;15.63;;;14.05;;
15536;SDS011;7870;52.448;13.270;2022-09-09T02:32:02;11.38;;;10.20;;
15536;SDS011;7870;52.448;13.270;2022-09-09T02:34:35;14.50;;;12.90;;
15536;SDS011;7870;52.448;13.270;2022-09-09T02:37:03;11.48;;;10.25;;
15536;SDS011;7870;52.448;13.270;2022-09-09T02:39:30;14.15;;;10.20;;
15536;SDS011;7870;52.448;13.270;2022-09-09T02:41:56;13.93;;;12.30;;
15536;SDS011;7870;52.448;13.270;2022-09-09T02:44:29;9.85;;;8.95;;
15536;SDS011;7870;52.448;13.270;2022-09-09T02:47:04;12.07;;;10.73;;
15536;SDS011;7870;52.448;13.270;2022-09-09T02:52:17;15.63;;;10.35;;
15536;SDS011;7870;52.448;13.270;2022-09-09T02:54:44;16.60;;;13.40;;
15536;SDS011;7870;52.448;13.270;2022-09-09T02:59:42;11.77;;;10.68;;
15536;SDS011;7870;52.448;13.270;2022-09-09T03:02:09;11.27;;;10.18;;
15536;SDS011;7870;52.448;13.270;2022-09-09T03:04:38;10.82;;;9.82;;
15536;SDS011;7870;52.448;13.270;2022-09-09T03:07:06;16.38;;;14.60;;
15536;SDS011;7870;52.448;13.270;2022-09-09T03:09:32;11.70;;;10.52;;
15536;SDS011;7870;52.448;13.270;2022-09-09T03:11:59;11.10;;;10.00;;
15536;SDS011;7870;52.448;13.270;2022-09-09T03:14:27;11.70;;;10.43;;
15536;SDS011;7870;52.448;13.270;2022-09-09T03:16:54;10.80;;;9.75;;
15536;SDS011;7870;52.448;13.270;2022-09-09T03:19:23;11.77;;;10.57;;
15536;SDS011;7870;52.448;13.270;2022-09-09T03:21:50;12.45;;;11.15;;
15536;SDS011;7870;52.448;13.270;2022-09-09T03:24:17;11.63;;;9.23;;
15536;SDS011;7870;52.448;13.270;2022-09-09T03:26:44;10.90;;;9.80;;
15536;SDS011;7870;52.448;13.270;2022-09-09T03:29:14;10.48;;;9.23;;
15536;SDS011;7870;52.448;13.270;2022-09-09T03:31:41;10.75;;;9.50;;
15536;SDS011;7870;52.448;13.270;2022-09-09T03:34:09;10.13;;;9.23;;
15536;SDS011;7870;52.448;13.270;2022-09-09T03:36:36;10.20;;;9.20;;
15536;SDS011;7870;52.448;13.270;2022-09-09T03:39:03;9.65;;;8.65;;
15536;SDS011;7870;52.448;13.270;2022-09-09T03:41:30;10.00;;;9.10;;
15536;SDS011;7870;52.448;13.270;2022-09-09T03:43:58;10.95;;;9.82;;
15536;SDS011;7870;52.448;13.270;2022-09-09T03:46:27;10.18;;;9.20;;
15536;SDS011;7870;52.448;13.270;2022-09-09T03:48:54;10.05;;;8.77;;
15536;SDS011;7870;52.448;13.270;2022-09-09T03:51:21;11.95;;;10.63;;
15536;SDS011;7870;52.448;13.270;2022-09-09T03:53:48;15.13;;;10.88;;
15536;SDS011;7870;52.448;13.270;2022-09-09T03:56:14;10.57;;;9.55;;
15536;SDS011;7870;52.448;13.270;2022-09-09T03:58:41;10.15;;;9.07;;
15536;SDS011;7870;52.448;13.270;2022-09-09T04:01:10;11.20;;;9.98;;
15536;SDS011;7870;52.448;13.270;2022-09-09T04:03:40;12.55;;;11.25;;
15536;SDS011;7870;52.448;13.270;2022-09-09T04:06:07;10.13;;;8.73;;
15536;SDS011;7870;52.448;13.270;2022-09-09T04:08:35;10.18;;;9.13;;
15536;SDS011;7870;52.448;13.270;2022-09-09T04:11:03;9.40;;;8.50;;
15536;SDS011;7870;52.448;13.270;2022-09-09T04:13:38;14.20;;;12.75;;
15536;SDS011;7870;52.448;13.270;2022-09-09T04:16:10;17.38;;;13.90;;
15536;SDS011;7870;52.448;13.270;2022-09-09T04:18:37;11.38;;;10.30;;
15536;SDS011;7870;52.448;13.270;2022-09-09T04:21:06;11.88;;;9.68;;
15536;SDS011;7870;52.448;13.270;2022-09-09T04:23:34;10.30;;;9.23;;
15536;SDS011;7870;52.448;13.270;2022-09-09T04:26:04;10.38;;;9.38;;
15536;SDS011;7870;52.448;13.270;2022-09-09T04:28:32;10.63;;;8.52;;
15536;SDS011;7870;52.448;13.270;2022-09-09T04:31:06;8.95;;;8.10;;
15536;SDS011;7870;52.448;13.270;2022-09-09T04:33:33;9.85;;;8.88;;
15536;SDS011;7870;52.448;13.270;2022-09-09T04:36:05;9.25;;;8.02;;
15536;SDS011;7870;52.448;13.270;2022-09-09T04:38:32;10.27;;;9.27;;
15536;SDS011;7870;52.448;13.270;2022-09-09T04:40:59;12.48;;;9.35;;
15536;SDS011;7870;52.448;13.270;2022-09-09T04:43:26;12.57;;;7.90;;
15536;SDS011;7870;52.448;13.270;2022-09-09T04:45:53;9.75;;;8.57;;
15536;SDS011;7870;52.448;13.270;2022-09-09T04:48:23;8.40;;;7.38;;
15536;SDS011;7870;52.448;13.270;2022-09-09T04:50:57;8.48;;;7.68;;
15536;SDS011;7870;52.448;13.270;2022-09-09T04:53:25;9.57;;;8.63;;
15536;SDS011;7870;52.448;13.270;2022-09-09T04:55:52;11.30;;;8.73;;
15536;SDS011;7870;52.448;13.270;2022-09-09T04:58:20;10.63;;;7.15;;
15536;SDS011;7870;52.448;13.270;2022-09-09T05:00:48;10.23;;;9.00;;
15536;SDS011;7870;52.448;13.270;2022-09-09T05:03:15;8.65;;;7.85;;
15536;SDS011;7870;52.448;13.270;2022-09-09T05:05:41;8.93;;;8.02;;
15536;SDS011;7870;52.448;13.270;2022-09-09T05:08:08;8.23;;;7.25;;
15536;SDS011;7870;52.448;13.270;2022-09-09T05:10:36;9.85;;;7.93;;
15536;SDS011;7870;52.448;13.270;2022-09-09T05:13:04;7.80;;;7.10;;
15536;SDS011;7870;52.448;13.270;2022-09-09T05:15:31;7.65;;;6.35;;
15536;SDS011;7870;52.448;13.270;2022-09-09T05:17:58;10.10;;;6.50;;
15536;SDS011;7870;52.448;13.270;2022-09-09T05:20:28;6.60;;;6.00;;
15536;SDS011;7870;52.448;13.270;2022-09-09T05:22:55;9.15;;;6.75;;
15536;SDS011;7870;52.448;13.270;2022-09-09T05:25:24;6.65;;;5.95;;
15536;SDS011;7870;52.448;13.270;2022-09-09T05:27:53;10.18;;;5.65;;
15536;SDS011;7870;52.448;13.270;2022-09-09T05:30:20;9.65;;;6.93;;
15536;SDS011;7870;52.448;13.270;2022-09-09T05:32:50;7.68;;;5.97;;
15536;SDS011;7870;52.448;13.270;2022-09-09T05:35:17;10.82;;;7.50;;
15536;SDS011;7870;52.448;13.270;2022-09-09T05:37:45;6.00;;;5.40;;
15536;SDS011;7870;52.448;13.270;2022-09-09T05:40:12;7.20;;;6.45;;
15536;SDS011;7870;52.448;13.270;2022-09-09T05:42:39;15.23;;;11.13;;
15536;SDS011;7870;52.448;13.270;2022-09-09T05:45:07;9.52;;;8.43;;
15536;SDS011;7870;52.448;13.270;2022-09-09T05:47:35;10.27;;;6.60;;
15536;SDS011;7870;52.448;13.270;2022-09-09T05:50:08;7.35;;;6.55;;
15536;SDS011;7870;52.448;13.270;2022-09-09T05:52:34;7.47;;;6.70;;
15536;SDS011;7870;52.448;13.270;2022-09-09T05:55:02;10.35;;;6.20;;
15536;SDS011;7870;52.448;13.270;2022-09-09T05:57:30;8.50;;;6.05;;
15536;SDS011;7870;52.448;13.270;2022-09-09T05:59:57;8.68;;;5.75;;
15536;SDS011;7870;52.448;13.270;2022-09-09T06:02:23;9.32;;;5.68;;
15536;SDS011;7870;52.448;13.270;2022-09-09T06:04:50;9.65;;;5.78;;
15536;SDS011;7870;52.448;13.270;2022-09-09T06:07:16;10.52;;;5.53;;
15536;SDS011;7870;52.448;13.270;2022-09-09T06:09:44;7.47;;;4.90;;
15536;SDS011;7870;52.448;13.270;2022-09-09T06:12:11;6.82;;;5.00;;
15536;SDS011;7870;52.448;13.270;2022-09-09T06:14:38;7.25;;;5.38;;
15536;SDS011;7870;52.448;13.270;2022-09-09T06:19:36;6.47;;;4.47;;
15536;SDS011;7870;52.448;13.270;2022-09-09T06:22:03;6.72;;;4.10;;
15536;SDS011;7870;52.448;13.270;2022-09-09T06:24:32;5.50;;;4.47;;
15536;SDS011;7870;52.448;13.270;2022-09-09T06:27:00;9.35;;;4.38;;
15536;SDS011;7870;52.448;13.270;2022-09-09T06:29:31;5.40;;;3.83;;
15536;SDS011;7870;52.448;13.270;2022-09-09T06:32:00;6.63;;;3.10;;
15536;SDS011;7870;52.448;13.270;2022-09-09T06:34:27;5.00;;;3.28;;
15536;SDS011;7870;52.448;13.270;2022-09-09T06:36:56;10.05;;;3.88;;
15536;SDS011;7870;52.448;13.270;2022-09-09T06:39:28;7.85;;;3.45;;
15536;SDS011;7870;52.448;13.270;2022-09-09T06:41:55;7.72;;;3.20;;
15536;SDS011;7870;52.448;13.270;2022-09-09T06:44:45;7.43;;;3.15;;
15536;SDS011;7870;52.448;13.270;2022-09-09T06:47:18;5.57;;;3.42;;
15536;SDS011;7870;52.448;13.270;2022-09-09T06:49:45;3.95;;;3.08;;
15536;SDS011;7870;52.448;13.270;2022-09-09T06:52:14;4.90;;;2.78;;
15536;SDS011;7870;52.448;13.270;2022-09-09T06:54:40;5.65;;;2.85;;
15536;SDS011;7870;52.448;13.270;2022-09-09T06:57:07;5.97;;;2.55;;
15536;SDS011;7870;52.448;13.270;2022-09-09T06:59:54;7.30;;;2.22;;
15536;SDS011;7870;52.448;13.270;2022-09-09T07:02:21;5.88;;;2.78;;
15536;SDS011;7870;52.448;13.270;2022-09-09T07:04:47;9.50;;;3.17;;
15536;SDS011;7870;52.448;13.270;2022-09-09T07:07:17;6.05;;;2.42;;
15536;SDS011;7870;52.448;13.270;2022-09-09T07:09:44;6.88;;;2.20;;
15536;SDS011;7870;52.448;13.270;2022-09-09T07:12:11;3.88;;;1.98;;
15536;SDS011;7870;52.448;13.270;2022-09-09T07:14:44;4.53;;;1.67;;
15536;SDS011;7870;52.448;13.270;2022-09-09T07:17:11;6.97;;;2.10;;
15536;SDS011;7870;52.448;13.270;2022-09-09T07:19:39;4.00;;;1.83;;
15536;SDS011;7870;52.448;13.270;2022-09-09T07:22:05;8.48;;;1.83;;
15536;SDS011;7870;52.448;13.270;2022-09-09T07:24:34;6.15;;;1.90;;
15536;SDS011;7870;52.448;13.270;2022-09-09T07:27:00;5.18;;;1.65;;
15536;SDS011;7870;52.448;13.270;2022-09-09T07:29:27;4.65;;;1.90;;
15536;SDS011;7870;52.448;13.270;2022-09-09T07:31:55;4.03;;;1.80;;
15536;SDS011;7870;52.448;13.270;2022-09-09T07:34:26;4.47;;;1.70;;
15536;SDS011;7870;52.448;13.270;2022-09-09T07:36:53;4.45;;;1.85;;
15536;SDS011;7870;52.448;13.270;2022-09-09T07:39:19;6.82;;;1.85;;
15536;SDS011;7870;52.448;13.270;2022-09-09T07:41:50;3.97;;;1.50;;
15536;SDS011;7870;52.448;13.270;2022-09-09T07:44:21;4.07;;;1.52;;
15536;SDS011;7870;52.448;13.270;2022-09-09T07:46:52;6.97;;;1.40;;
15536;SDS011;7870;52.448;13.270;2022-09-09T07:49:24;4.65;;;1.27;;
15536;SDS011;7870;52.448;13.270;2022-09-09T07:51:57;4.22;;;1.60;;
15536;SDS011;7870;52.448;13.270;2022-09-09T07:54:24;2.90;;;1.20;;
15536;SDS011;7870;52.448;13.270;2022-09-09T07:56:51;4.32;;;1.42;;
15536;SDS011;7870;52.448;13.270;2022-09-09T07:59:21;3.78;;;1.52;;
15536;SDS011;7870;52.448;13.270;2022-09-09T08:01:51;3.47;;;1.35;;
15536;SDS011;7870;52.448;13.270;2022-09-09T08:04:23;4.40;;;1.40;;
15536;SDS011;7870;52.448;13.270;2022-09-09T08:06:52;3.10;;;1.10;;
15536;SDS011;7870;52.448;13.270;2022-09-09T08:09:21;5.07;;;1.58;;
15536;SDS011;7870;52.448;13.270;2022-09-09T08:11:48;4.72;;;1.70;;
15536;SDS011;7870;52.448;13.270;2022-09-09T08:14:16;4.97;;;1.38;;
15536;SDS011;7870;52.448;13.270;2022-09-09T08:16:43;3.30;;;1.45;;
15536;SDS011;7870;52.448;13.270;2022-09-09T08:19:13;3.53;;;1.20;;
15536;SDS011;7870;52.448;13.270;2022-09-09T08:21:42;4.65;;;1.30;;
15536;SDS011;7870;52.448;13.270;2022-09-09T08:24:11;4.75;;;1.58;;
15536;SDS011;7870;52.448;13.270;2022-09-09T08:26:38;5.18;;;1.30;;
15536;SDS011;7870;52.448;13.270;2022-09-09T08:29:05;4.38;;;1.40;;
15536;SDS011;7870;52.448;13.270;2022-09-09T08:31:34;4.68;;;1.70;;
15536;SDS011;7870;52.448;13.270;2022-09-09T08:34:01;3.63;;;1.23;;
15536;SDS011;7870;52.448;13.270;2022-09-09T08:36:31;5.85;;;1.65;;
15536;SDS011;7870;52.448;13.270;2022-09-09T08:39:00;6.82;;;1.38;;
15536;SDS011;7870;52.448;13.270;2022-09-09T08:44:02;4.53;;;1.40;;
15536;SDS011;7870;52.448;13.270;2022-09-09T08:49:16;5.68;;;1.80;;
15536;SDS011;7870;52.448;13.270;2022-09-09T08:51:45;4.28;;;1.40;;
15536;SDS011;7870;52.448;13.270;2022-09-09T08:54:12;4.28;;;1.25;;
15536;SDS011;7870;52.448;13.270;2022-09-09T08:56:39;2.78;;;1.33;;
15536;SDS011;7870;52.448;13.270;2022-09-09T08:59:05;5.03;;;1.40;;
15536;SDS011;7870;52.448;13.270;2022-09-09T09:02:24;5.38;;;1.77;;
15536;SDS011;7870;52.448;13.270;2022-09-09T09:10:31;5.05;;;1.70;;
15536;SDS011;7870;52.448;13.270;2022-09-09T09:13:12;2.88;;;1.20;;
15536;SDS011;7870;52.448;13.270;2022-09-09T09:15:39;4.50;;;1.30;;
15536;SDS011;7870;52.448;13.270;2022-09-09T09:18:08;5.25;;;1.55;;
15536;SDS011;7870;52.448;13.270;2022-09-09T09:20:42;7.13;;;1.60;;
15536;SDS011;7870;52.448;13.270;2022-09-09T09:23:17;4.38;;;1.75;;
15536;SDS011;7870;52.448;13.270;2022-09-09T09:25:46;3.72;;;1.10;;
15536;SDS011;7870;52.448;13.270;2022-09-09T09:28:14;6.88;;;1.20;;
15536;SDS011;7870;52.448;13.270;2022-09-09T09:33:35;3.58;;;1.13;;
15536;SDS011;7870;52.448;13.270;2022-09-09T09:36:03;4.82;;;1.40;;
15536;SDS011;7870;52.448;13.270;2022-09-09T09:38:30;4.68;;;1.50;;
15536;SDS011;7870;52.448;13.270;2022-09-09T09:41:16;4.05;;;1.42;;
15536;SDS011;7870;52.448;13.270;2022-09-09T09:43:52;5.82;;;1.58;;
15536;SDS011;7870;52.448;13.270;2022-09-09T09:46:21;4.10;;;1.35;;
15536;SDS011;7870;52.448;13.270;2022-09-09T09:49:08;4.25;;;1.20;;
15536;SDS011;7870;52.448;13.270;2022-09-09T09:51:37;2.67;;;0.93;;
15536;SDS011;7870;52.448;13.270;2022-09-09T09:56:40;3.35;;;0.95;;
15536;SDS011;7870;52.448;13.270;2022-09-09T09:59:59;14.25;;;1.70;;
15536;SDS011;7870;52.448;13.270;2022-09-09T10:04:39;5.93;;;1.40;;
15536;SDS011;7870;52.448;13.270;2022-09-09T10:07:17;3.55;;;0.90;;
15536;SDS011;7870;52.448;13.270;2022-09-09T10:09:44;3.55;;;1.00;;
15536;SDS011;7870;52.448;13.270;2022-09-09T10:17:41;2.40;;;0.90;;
15536;SDS011;7870;52.448;13.270;2022-09-09T10:22:37;4.60;;;1.13;;
15536;SDS011;7870;52.448;13.270;2022-09-09T10:25:14;2.72;;;0.75;;
15536;SDS011;7870;52.448;13.270;2022-09-09T10:30:18;5.03;;;1.13;;
15536;SDS011;7870;52.448;13.270;2022-09-09T10:38:10;3.92;;;1.00;;
15536;SDS011;7870;52.448;13.270;2022-09-09T10:48:46;3.30;;;1.48;;
15536;SDS011;7870;52.448;13.270;2022-09-09T10:51:18;3.33;;;1.25;;
15536;SDS011;7870;52.448;13.270;2022-09-09T10:53:51;5.93;;;1.30;;
15536;SDS011;7870;52.448;13.270;2022-09-09T10:56:20;3.60;;;1.00;;
15536;SDS011;7870;52.448;13.270;2022-09-09T10:58:55;2.30;;;0.73;;
15536;SDS011;7870;52.448;13.270;2022-09-09T11:01:41;2.95;;;0.80;;
15536;SDS011;7870;52.448;13.270;2022-09-09T11:06:39;2.95;;;0.90;;
15536;SDS011;7870;52.448;13.270;2022-09-09T11:09:11;4.75;;;1.00;;
15536;SDS011;7870;52.448;13.270;2022-09-09T11:11:45;2.85;;;0.95;;
15536;SDS011;7870;52.448;13.270;2022-09-09T11:19:42;3.33;;;0.90;;
15536;SDS011;7870;52.448;13.270;2022-09-09T11:22:15;1.83;;;0.73;;
15536;SDS011;7870;52.448;13.270;2022-09-09T11:24:50;3.88;;;1.13;;
15536;SDS011;7870;52.448;13.270;2022-09-09T11:27:26;3.88;;;1.20;;
15536;SDS011;7870;52.448;13.270;2022-09-09T11:35:45;6.95;;;1.02;;
15536;SDS011;7870;52.448;13.270;2022-09-09T11:38:25;3.25;;;0.85;;
15536;SDS011;7870;52.448;13.270;2022-09-09T11:40:59;3.50;;;0.85;;
15536;SDS011;7870;52.448;13.270;2022-09-09T11:43:28;3.03;;;1.08;;
15536;SDS011;7870;52.448;13.270;2022-09-09T11:45:57;4.97;;;1.15;;
15536;SDS011;7870;52.448;13.270;2022-09-09T11:48:34;3.30;;;0.80;;
15536;SDS011;7870;52.448;13.270;2022-09-09T11:51:02;3.30;;;0.88;;
15536;SDS011;7870;52.448;13.270;2022-09-09T11:53:31;4.82;;;1.00;;
15536;SDS011;7870;52.448;13.270;2022-09-09T11:56:02;2.72;;;0.90;;
15536;SDS011;7870;52.448;13.270;2022-09-09T11:58:31;2.45;;;0.73;;
15536;SDS011;7870;52.448;13.270;2022-09-09T12:00:59;5.28;;;1.42;;
15536;SDS011;7870;52.448;13.270;2022-09-09T12:05:59;3.47;;;1.00;;
15536;SDS011;7870;52.448;13.270;2022-09-09T12:08:29;5.28;;;1.08;;
15536;SDS011;7870;52.448;13.270;2022-09-09T12:11:00;4.20;;;0.93;;
15536;SDS011;7870;52.448;13.270;2022-09-09T12:13:55;5.90;;;0.85;;
15536;SDS011;7870;52.448;13.270;2022-09-09T12:16:35;3.25;;;0.90;;
15536;SDS011;7870;52.448;13.270;2022-09-09T12:19:04;2.55;;;0.60;;
15536;SDS011;7870;52.448;13.270;2022-09-09T12:24:09;3.50;;;0.60;;
15536;SDS011;7870;52.448;13.270;2022-09-09T12:29:19;2.40;;;0.63;;
15536;SDS011;7870;52.448;13.270;2022-09-09T12:31:51;1.83;;;0.45;;
15536;SDS011;7870;52.448;13.270;2022-09-09T12:36:58;4.30;;;1.00;;
15536;SDS011;7870;52.448;13.270;2022-09-09T12:39:29;4.20;;;1.25;;
15536;SDS011;7870;52.448;13.270;2022-09-09T12:41:57;4.40;;;0.82;;
15536;SDS011;7870;52.448;13.270;2022-09-09T12:44:24;3.67;;;0.80;;
15536;SDS011;7870;52.448;13.270;2022-09-09T12:46:51;2.10;;;0.60;;
15536;SDS011;7870;52.448;13.270;2022-09-09T12:49:28;3.13;;;0.82;;
15536;SDS011;7870;52.448;13.270;2022-09-09T12:52:07;3.70;;;1.00;;
15536;SDS011;7870;52.448;13.270;2022-09-09T12:54:36;3.28;;;0.82;;
15536;SDS011;7870;52.448;13.270;2022-09-09T12:57:03;4.28;;;1.05;;
15536;SDS011;7870;52.448;13.270;2022-09-09T12:59:35;2.42;;;0.93;;
15536;SDS011;7870;52.448;13.270;2022-09-09T13:02:11;5.05;;;1.13;;
15536;SDS011;7870;52.448;13.270;2022-09-09T13:04:40;5.07;;;1.00;;
15536;SDS011;7870;52.448;13.270;2022-09-09T13:07:07;3.15;;;1.00;;
15536;SDS011;7870;52.448;13.270;2022-09-09T13:09:36;4.65;;;1.20;;
15536;SDS011;7870;52.448;13.270;2022-09-09T13:12:03;3.92;;;1.08;;
15536;SDS011;7870;52.448;13.270;2022-09-09T13:14:34;2.70;;;0.73;;
15536;SDS011;7870;52.448;13.270;2022-09-09T13:17:04;3.50;;;0.90;;
15536;SDS011;7870;52.448;13.270;2022-09-09T13:19:33;4.25;;;0.90;;
15536;SDS011;7870;52.448;13.270;2022-09-09T13:24:47;5.93;;;1.10;;
15536;SDS011;7870;52.448;13.270;2022-09-09T13:27:23;3.58;;;0.70;;
15536;SDS011;7870;52.448;13.270;2022-09-09T13:29:51;3.40;;;1.05;;
15536;SDS011;7870;52.448;13.270;2022-09-09T13:32:21;4.88;;;1.05;;
15536;SDS011;7870;52.448;13.270;2022-09-09T13:34:56;2.83;;;0.98;;
15536;SDS011;7870;52.448;13.270;2022-09-09T13:37:24;3.70;;;1.13;;
15536;SDS011;7870;52.448;13.270;2022-09-09T13:39:54;4.75;;;1.35;;
15536;SDS011;7870;52.448;13.270;2022-09-09T13:42:22;3.10;;;0.70;;
15536;SDS011;7870;52.448;13.270;2022-09-09T13:44:50;4.82;;;0.88;;
15536;SDS011;7870;52.448;13.270;2022-09-09T13:49:43;4.78;;;0.90;;
15536;SDS011;7870;52.448;13.270;2022-09-09T13:52:11;4.30;;;0.90;;
15536;SDS011;7870;52.448;13.270;2022-09-09T13:54:38;3.72;;;1.02;;
15536;SDS011;7870;52.448;13.270;2022-09-09T13:57:05;3.70;;;1.33;;
15536;SDS011;7870;52.448;13.270;2022-09-09T13:59:32;2.85;;;0.80;;
15536;SDS011;7870;52.448;13.270;2022-09-09T14:02:18;4.15;;;1.00;;
15536;SDS011;7870;52.448;13.270;2022-09-09T14:04:47;4.10;;;0.95;;
15536;SDS011;7870;52.448;13.270;2022-09-09T14:07:17;5.00;;;0.90;;
15536;SDS011;7870;52.448;13.270;2022-09-09T14:09:44;4.22;;;0.65;;
15536;SDS011;7870;52.448;13.270;2022-09-09T14:12:11;4.47;;;1.00;;
15536;SDS011;7870;52.448;13.270;2022-09-09T14:14:39;3.03;;;1.00;;
15536;SDS011;7870;52.448;13.270;2022-09-09T14:17:06;3.25;;;0.90;;
15536;SDS011;7870;52.448;13.270;2022-09-09T14:19:35;3.20;;;1.10;;
15536;SDS011;7870;52.448;13.270;2022-09-09T14:22:03;2.70;;;0.95;;
15536;SDS011;7870;52.448;13.270;2022-09-09T14:24:30;4.03;;;0.93;;
15536;SDS011;7870;52.448;13.270;2022-09-09T14:26:57;3.88;;;0.80;;
15536;SDS011;7870;52.448;13.270;2022-09-09T14:29:23;3.60;;;1.10;;
15536;SDS011;7870;52.448;13.270;2022-09-09T14:31:51;2.58;;;0.85;;
15536;SDS011;7870;52.448;13.270;2022-09-09T14:34:17;3.95;;;0.82;;
15536;SDS011;7870;52.448;13.270;2022-09-09T14:36:44;2.83;;;0.90;;
15536;SDS011;7870;52.448;13.270;2022-09-09T14:39:11;5.68;;;0.95;;
15536;SDS011;7870;52.448;13.270;2022-09-09T14:41:38;2.60;;;0.75;;
15536;SDS011;7870;52.448;13.270;2022-09-09T14:44:04;3.55;;;1.02;;
15536;SDS011;7870;52.448;13.270;2022-09-09T14:46:31;2.85;;;1.10;;
15536;SDS011;7870;52.448;13.270;2022-09-09T14:48:58;4.72;;;1.20;;
15536;SDS011;7870;52.448;13.270;2022-09-09T14:51:26;2.13;;;0.82;;
15536;SDS011;7870;52.448;13.270;2022-09-09T14:53:55;3.33;;;0.85;;
15536;SDS011;7870;52.448;13.270;2022-09-09T14:56:22;3.17;;;0.77;;
15536;SDS011;7870;52.448;13.270;2022-09-09T14:58:50;3.45;;;0.93;;
15536;SDS011;7870;52.448;13.270;2022-09-09T15:01:19;3.70;;;0.88;;
15536;SDS011;7870;52.448;13.270;2022-09-09T15:03:50;6.95;;;1.10;;
15536;SDS011;7870;52.448;13.270;2022-09-09T15:08:44;6.88;;;1.52;;
15536;SDS011;7870;52.448;13.270;2022-09-09T15:11:11;4.28;;;1.00;;
15536;SDS011;7870;52.448;13.270;2022-09-09T15:13:38;3.28;;;0.95;;
15536;SDS011;7870;52.448;13.270;2022-09-09T15:18:32;3.78;;;1.10;;
15536;SDS011;7870;52.448;13.270;2022-09-09T15:20:59;4.28;;;0.93;;
15536;SDS011;7870;52.448;13.270;2022-09-09T15:23:27;3.05;;;0.70;;
15536;SDS011;7870;52.448;13.270;2022-09-09T15:25:54;6.40;;;1.17;;
15536;SDS011;7870;52.448;13.270;2022-09-09T15:28:21;3.22;;;0.88;;
15536;SDS011;7870;52.448;13.270;2022-09-09T15:30:48;3.92;;;0.95;;
15536;SDS011;7870;52.448;13.270;2022-09-09T15:33:15;3.75;;;0.90;;
15536;SDS011;7870;52.448;13.270;2022-09-09T15:35:42;2.53;;;0.73;;
15536;SDS011;7870;52.448;13.270;2022-09-09T15:38:08;7.35;;;1.05;;
15536;SDS011;7870;52.448;13.270;2022-09-09T15:40:35;2.53;;;0.63;;
15536;SDS011;7870;52.448;13.270;2022-09-09T15:43:01;5.47;;;1.00;;
15536;SDS011;7870;52.448;13.270;2022-09-09T15:45:29;4.47;;;1.05;;
15536;SDS011;7870;52.448;13.270;2022-09-09T15:47:57;3.20;;;0.98;;
15536;SDS011;7870;52.448;13.270;2022-09-09T15:50:24;3.67;;;0.80;;
15536;SDS011;7870;52.448;13.270;2022-09-09T15:52:50;4.35;;;1.00;;
15536;SDS011;7870;52.448;13.270;2022-09-09T15:55:19;3.67;;;0.82;;
15536;SDS011;7870;52.448;13.270;2022-09-09T15:57:46;1.67;;;0.70;;
15536;SDS011;7870;52.448;13.270;2022-09-09T16:00:13;4.40;;;1.27;;
15536;SDS011;7870;52.448;13.270;2022-09-09T16:02:40;6.18;;;1.10;;
15536;SDS011;7870;52.448;13.270;2022-09-09T16:05:07;2.83;;;0.90;;
15536;SDS011;7870;52.448;13.270;2022-09-09T16:07:33;3.47;;;0.93;;
15536;SDS011;7870;52.448;13.270;2022-09-09T16:10:01;5.43;;;1.42;;
15536;SDS011;7870;52.448;13.270;2022-09-09T16:12:27;3.30;;;1.20;;
15536;SDS011;7870;52.448;13.270;2022-09-09T16:14:54;4.07;;;1.00;;
15536;SDS011;7870;52.448;13.270;2022-09-09T16:17:21;5.32;;;1.00;;
15536;SDS011;7870;52.448;13.270;2022-09-09T16:19:48;3.65;;;1.00;;
15536;SDS011;7870;52.448;13.270;2022-09-09T16:22:15;3.55;;;1.00;;
15536;SDS011;7870;52.448;13.270;2022-09-09T16:24:42;4.40;;;1.23;;
15536;SDS011;7870;52.448;13.270;2022-09-09T16:27:13;4.85;;;1.10;;
15536;SDS011;7870;52.448;13.270;2022-09-09T16:29:40;5.03;;;0.80;;
15536;SDS011;7870;52.448;13.270;2022-09-09T16:32:06;5.13;;;1.10;;
15536;SDS011;7870;52.448;13.270;2022-09-09T16:34:34;3.00;;;0.98;;
15536;SDS011;7870;52.448;13.270;2022-09-09T16:37:01;3.00;;;0.93;;
15536;SDS011;7870;52.448;13.270;2022-09-09T16:39:28;5.15;;;1.00;;
15536;SDS011;7870;52.448;13.270;2022-09-09T16:41:54;4.50;;;1.02;;
15536;SDS011;7870;52.448;13.270;2022-09-09T16:44:21;2.83;;;0.73;;
15536;SDS011;7870;52.448;13.270;2022-09-09T16:46:48;2.35;;;0.85;;
15536;SDS011;7870;52.448;13.270;2022-09-09T16:49:15;3.92;;;0.90;;
15536;SDS011;7870;52.448;13.270;2022-09-09T16:51:43;3.40;;;1.10;;
15536;SDS011;7870;52.448;13.270;2022-09-09T16:54:12;5.43;;;1.17;;